This is the latest recevied weather packets stored in our database for station/object IW1CBG-23. If no packets are shown the sender has not sent any weather packets the latest 10 day(s).
| Time | Temp. | Humidity | Pressure | Rain* | Wind** | Luminosity | Snow |
|---|---|---|---|---|---|---|---|
| 1777781727 | 11.11° C | 62% | 1014.9 hPa | - | - | - | - |
| 1777780488 | 11.67° C | 59% | 1015 hPa | - | - | - | - |
| 1777779251 | 11.67° C | 59% | 1015.1 hPa | - | - | - | - |
| 1777778014 | 11.11° C | 66% | 1015.1 hPa | - | - | - | - |
| 1777776777 | 11.11° C | 66% | 1015.3 hPa | - | - | - | - |
| 1777775540 | 11.11° C | 65% | 1015.4 hPa | - | - | - | - |
| 1777774303 | 11.67° C | 63% | 1015.5 hPa | - | - | - | - |
| 1777773067 | 11.67° C | 62% | 1015.6 hPa | - | - | - | - |
| 1777770590 | 11.67° C | 58% | 1015.7 hPa | - | - | - | - |
| 1777768116 | 12.22° C | 67% | 1016.2 hPa | - | - | - | - |
| 1777766879 | 12.22° C | 67% | 1016.4 hPa | - | - | - | - |
| 1777765641 | 12.22° C | 68% | 1016.6 hPa | - | - | - | - |
| 1777764403 | 11.67° C | 69% | 1016.7 hPa | - | - | - | - |
| 1777763165 | 12.22° C | 68% | 1016.8 hPa | - | - | - | - |
| 1777761941 | 12.22° C | 68% | 1016.9 hPa | - | - | - | - |
| 1777760689 | 12.22° C | 65% | 1016.9 hPa | - | - | - | - |
| 1777759452 | 12.22° C | 66% | 1017.1 hPa | - | - | - | - |
| 1777758214 | 11.67° C | 60% | 1017.1 hPa | - | - | - | - |
| 1777756978 | 11.67° C | 54% | 1016.9 hPa | - | - | - | - |
| 1777755740 | 11.67° C | 55% | 1017.1 hPa | - | - | - | - |
| 1777754503 | 11.67° C | 54% | 1017.2 hPa | - | - | - | - |
| 1777753265 | 12.22° C | 56% | 1017.3 hPa | - | - | - | - |
| 1777752027 | 12.22° C | 56% | 1017.3 hPa | - | - | - | - |
| 1777750791 | 11.67° C | 56% | 1017.1 hPa | - | - | - | - |
| 1777749554 | 11.67° C | 55% | 1016.9 hPa | - | - | - | - |
* Rain since midnight (hover to see other rain measurements)
** Current wind speed in m/s (hover to see current wind gust speed)